sensor_id;sensor_type;location;lat;lon;timestamp;P1;durP1;ratioP1;P2;durP2;ratioP2
20375;SDS011;10347;51.828;6.466;2023-04-03T00:00:03;2.10;;;1.90;;
20375;SDS011;10347;51.828;6.466;2023-04-03T00:02:30;3.00;;;1.75;;
20375;SDS011;10347;51.828;6.466;2023-04-03T00:04:56;3.45;;;1.85;;
20375;SDS011;10347;51.828;6.466;2023-04-03T00:07:21;3.15;;;2.03;;
20375;SDS011;10347;51.828;6.466;2023-04-03T00:09:47;2.05;;;1.63;;
20375;SDS011;10347;51.828;6.466;2023-04-03T00:12:12;2.55;;;1.75;;
20375;SDS011;10347;51.828;6.466;2023-04-03T00:14:38;2.22;;;1.80;;
20375;SDS011;10347;51.828;6.466;2023-04-03T00:17:03;3.30;;;1.90;;
20375;SDS011;10347;51.828;6.466;2023-04-03T00:19:29;2.67;;;2.00;;
20375;SDS011;10347;51.828;6.466;2023-04-03T00:21:55;3.28;;;1.83;;
20375;SDS011;10347;51.828;6.466;2023-04-03T00:24:20;2.13;;;1.95;;
20375;SDS011;10347;51.828;6.466;2023-04-03T00:26:46;4.10;;;2.05;;
20375;SDS011;10347;51.828;6.466;2023-04-03T00:29:11;2.45;;;1.77;;
20375;SDS011;10347;51.828;6.466;2023-04-03T00:31:37;1.70;;;1.60;;
20375;SDS011;10347;51.828;6.466;2023-04-03T00:34:02;2.03;;;1.80;;
20375;SDS011;10347;51.828;6.466;2023-04-03T00:36:28;2.80;;;1.92;;
20375;SDS011;10347;51.828;6.466;2023-04-03T00:38:54;1.95;;;1.85;;
20375;SDS011;10347;51.828;6.466;2023-04-03T00:41:20;2.25;;;1.92;;
20375;SDS011;10347;51.828;6.466;2023-04-03T00:43:46;2.53;;;1.70;;
20375;SDS011;10347;51.828;6.466;2023-04-03T00:46:12;3.03;;;1.90;;
20375;SDS011;10347;51.828;6.466;2023-04-03T00:48:39;1.73;;;1.60;;
20375;SDS011;10347;51.828;6.466;2023-04-03T00:51:09;2.72;;;1.50;;
20375;SDS011;10347;51.828;6.466;2023-04-03T00:53:45;2.58;;;1.92;;
20375;SDS011;10347;51.828;6.466;2023-04-03T00:56:14;2.03;;;1.80;;
20375;SDS011;10347;51.828;6.466;2023-04-03T00:58:49;1.80;;;1.70;;
20375;SDS011;10347;51.828;6.466;2023-04-03T01:01:20;1.73;;;1.63;;
20375;SDS011;10347;51.828;6.466;2023-04-03T01:03:49;1.80;;;1.70;;
20375;SDS011;10347;51.828;6.466;2023-04-03T01:06:15;3.25;;;1.80;;
20375;SDS011;10347;51.828;6.466;2023-04-03T01:08:42;2.60;;;1.88;;
20375;SDS011;10347;51.828;6.466;2023-04-03T01:11:09;1.73;;;1.63;;
20375;SDS011;10347;51.828;6.466;2023-04-03T01:13:35;1.95;;;1.80;;
20375;SDS011;10347;51.828;6.466;2023-04-03T01:16:01;2.53;;;1.80;;
20375;SDS011;10347;51.828;6.466;2023-04-03T01:18:28;2.90;;;1.75;;
20375;SDS011;10347;51.828;6.466;2023-04-03T01:23:57;2.15;;;1.65;;
20375;SDS011;10347;51.828;6.466;2023-04-03T01:26:33;2.20;;;1.70;;
20375;SDS011;10347;51.828;6.466;2023-04-03T01:29:00;2.17;;;1.77;;
20375;SDS011;10347;51.828;6.466;2023-04-03T01:31:27;1.80;;;1.70;;
20375;SDS011;10347;51.828;6.466;2023-04-03T01:33:58;2.83;;;2.10;;
20375;SDS011;10347;51.828;6.466;2023-04-03T01:36:25;2.10;;;1.90;;
20375;SDS011;10347;51.828;6.466;2023-04-03T01:38:53;3.38;;;2.00;;
20375;SDS011;10347;51.828;6.466;2023-04-03T01:41:20;2.10;;;1.90;;
20375;SDS011;10347;51.828;6.466;2023-04-03T01:43:46;2.20;;;1.80;;
20375;SDS011;10347;51.828;6.466;2023-04-03T01:46:13;1.90;;;1.63;;
20375;SDS011;10347;51.828;6.466;2023-04-03T01:48:39;3.83;;;1.80;;
20375;SDS011;10347;51.828;6.466;2023-04-03T01:51:05;2.47;;;1.80;;
20375;SDS011;10347;51.828;6.466;2023-04-03T01:53:31;1.80;;;1.70;;
20375;SDS011;10347;51.828;6.466;2023-04-03T01:55:56;2.50;;;1.77;;
20375;SDS011;10347;51.828;6.466;2023-04-03T01:58:22;1.73;;;1.63;;
20375;SDS011;10347;51.828;6.466;2023-04-03T02:00:47;3.38;;;1.58;;
20375;SDS011;10347;51.828;6.466;2023-04-03T02:03:13;2.85;;;1.70;;
20375;SDS011;10347;51.828;6.466;2023-04-03T02:05:39;2.08;;;1.65;;
20375;SDS011;10347;51.828;6.466;2023-04-03T02:08:05;2.65;;;1.70;;
20375;SDS011;10347;51.828;6.466;2023-04-03T02:10:31;1.80;;;1.70;;
20375;SDS011;10347;51.828;6.466;2023-04-03T02:12:57;1.98;;;1.70;;
20375;SDS011;10347;51.828;6.466;2023-04-03T02:15:22;1.67;;;1.50;;
20375;SDS011;10347;51.828;6.466;2023-04-03T02:17:48;2.30;;;1.73;;
20375;SDS011;10347;51.828;6.466;2023-04-03T02:20:13;1.70;;;1.60;;
20375;SDS011;10347;51.828;6.466;2023-04-03T02:22:39;3.35;;;2.17;;
20375;SDS011;10347;51.828;6.466;2023-04-03T02:25:05;1.70;;;1.60;;
20375;SDS011;10347;51.828;6.466;2023-04-03T02:27:30;2.22;;;2.03;;
20375;SDS011;10347;51.828;6.466;2023-04-03T02:29:56;1.70;;;1.60;;
20375;SDS011;10347;51.828;6.466;2023-04-03T02:32:22;2.85;;;1.88;;
20375;SDS011;10347;51.828;6.466;2023-04-03T02:34:48;3.22;;;1.90;;
20375;SDS011;10347;51.828;6.466;2023-04-03T02:37:13;3.10;;;2.05;;
20375;SDS011;10347;51.828;6.466;2023-04-03T02:39:39;3.65;;;1.70;;
20375;SDS011;10347;51.828;6.466;2023-04-03T02:42:05;2.63;;;1.70;;
20375;SDS011;10347;51.828;6.466;2023-04-03T02:44:30;2.70;;;1.75;;
20375;SDS011;10347;51.828;6.466;2023-04-03T02:46:56;1.70;;;1.60;;
20375;SDS011;10347;51.828;6.466;2023-04-03T02:49:21;2.28;;;1.98;;
20375;SDS011;10347;51.828;6.466;2023-04-03T02:51:47;1.70;;;1.60;;
20375;SDS011;10347;51.828;6.466;2023-04-03T02:54:12;2.05;;;1.95;;
20375;SDS011;10347;51.828;6.466;2023-04-03T02:56:38;2.00;;;1.80;;
20375;SDS011;10347;51.828;6.466;2023-04-03T02:59:04;2.60;;;1.70;;
20375;SDS011;10347;51.828;6.466;2023-04-03T03:01:30;2.55;;;1.80;;
20375;SDS011;10347;51.828;6.466;2023-04-03T03:03:57;1.65;;;1.60;;
20375;SDS011;10347;51.828;6.466;2023-04-03T03:06:26;2.17;;;1.83;;
20375;SDS011;10347;51.828;6.466;2023-04-03T03:08:52;1.88;;;1.77;;
20375;SDS011;10347;51.828;6.466;2023-04-03T03:11:18;2.00;;;1.80;;
20375;SDS011;10347;51.828;6.466;2023-04-03T03:13:43;2.35;;;1.70;;
20375;SDS011;10347;51.828;6.466;2023-04-03T03:16:09;3.95;;;2.22;;
20375;SDS011;10347;51.828;6.466;2023-04-03T03:18:35;1.92;;;1.60;;
20375;SDS011;10347;51.828;6.466;2023-04-03T03:21:01;1.83;;;1.67;;
20375;SDS011;10347;51.828;6.466;2023-04-03T03:23:29;2.38;;;1.70;;
20375;SDS011;10347;51.828;6.466;2023-04-03T03:26:01;1.85;;;1.75;;
20375;SDS011;10347;51.828;6.466;2023-04-03T03:28:31;1.77;;;1.65;;
20375;SDS011;10347;51.828;6.466;2023-04-03T03:30:58;3.80;;;2.45;;
20375;SDS011;10347;51.828;6.466;2023-04-03T03:33:24;2.03;;;1.70;;
20375;SDS011;10347;51.828;6.466;2023-04-03T03:35:51;3.42;;;1.70;;
20375;SDS011;10347;51.828;6.466;2023-04-03T03:38:17;1.85;;;1.75;;
20375;SDS011;10347;51.828;6.466;2023-04-03T03:40:43;4.18;;;2.20;;
20375;SDS011;10347;51.828;6.466;2023-04-03T03:43:08;2.60;;;1.70;;
20375;SDS011;10347;51.828;6.466;2023-04-03T03:45:34;2.63;;;1.90;;
20375;SDS011;10347;51.828;6.466;2023-04-03T03:48:00;5.10;;;2.00;;
20375;SDS011;10347;51.828;6.466;2023-04-03T03:50:26;4.70;;;1.83;;
20375;SDS011;10347;51.828;6.466;2023-04-03T03:52:51;2.00;;;1.90;;
20375;SDS011;10347;51.828;6.466;2023-04-03T03:55:17;2.10;;;1.77;;
20375;SDS011;10347;51.828;6.466;2023-04-03T03:57:42;1.95;;;1.77;;
20375;SDS011;10347;51.828;6.466;2023-04-03T04:00:08;1.90;;;1.80;;
20375;SDS011;10347;51.828;6.466;2023-04-03T04:02:34;1.98;;;1.88;;
20375;SDS011;10347;51.828;6.466;2023-04-03T04:05:00;2.45;;;1.70;;
20375;SDS011;10347;51.828;6.466;2023-04-03T04:07:25;3.67;;;1.90;;
20375;SDS011;10347;51.828;6.466;2023-04-03T04:09:53;1.90;;;1.52;;
20375;SDS011;10347;51.828;6.466;2023-04-03T04:12:19;2.25;;;1.88;;
20375;SDS011;10347;51.828;6.466;2023-04-03T04:14:45;2.30;;;1.92;;
20375;SDS011;10347;51.828;6.466;2023-04-03T04:17:11;1.92;;;1.67;;
20375;SDS011;10347;51.828;6.466;2023-04-03T04:19:37;2.47;;;2.00;;
20375;SDS011;10347;51.828;6.466;2023-04-03T04:22:03;4.30;;;2.10;;
20375;SDS011;10347;51.828;6.466;2023-04-03T04:24:28;2.22;;;2.00;;
20375;SDS011;10347;51.828;6.466;2023-04-03T04:26:54;2.50;;;2.22;;
20375;SDS011;10347;51.828;6.466;2023-04-03T04:29:19;2.20;;;1.90;;
20375;SDS011;10347;51.828;6.466;2023-04-03T04:31:45;2.63;;;2.10;;
20375;SDS011;10347;51.828;6.466;2023-04-03T04:34:11;4.20;;;2.00;;
20375;SDS011;10347;51.828;6.466;2023-04-03T04:36:38;5.43;;;2.38;;
20375;SDS011;10347;51.828;6.466;2023-04-03T04:39:04;3.08;;;2.00;;
20375;SDS011;10347;51.828;6.466;2023-04-03T04:41:30;2.67;;;2.03;;
20375;SDS011;10347;51.828;6.466;2023-04-03T04:43:56;2.75;;;2.20;;
20375;SDS011;10347;51.828;6.466;2023-04-03T04:46:22;2.47;;;2.05;;
20375;SDS011;10347;51.828;6.466;2023-04-03T04:48:47;2.53;;;1.92;;
20375;SDS011;10347;51.828;6.466;2023-04-03T04:51:13;3.50;;;2.03;;
20375;SDS011;10347;51.828;6.466;2023-04-03T04:53:39;4.25;;;1.92;;
20375;SDS011;10347;51.828;6.466;2023-04-03T04:56:06;2.45;;;1.98;;
20375;SDS011;10347;51.828;6.466;2023-04-03T04:58:31;2.42;;;2.10;;
20375;SDS011;10347;51.828;6.466;2023-04-03T05:01:00;2.15;;;1.80;;
20375;SDS011;10347;51.828;6.466;2023-04-03T05:03:26;2.50;;;2.30;;
20375;SDS011;10347;51.828;6.466;2023-04-03T05:05:52;2.70;;;2.05;;
20375;SDS011;10347;51.828;6.466;2023-04-03T05:08:18;2.55;;;2.17;;
20375;SDS011;10347;51.828;6.466;2023-04-03T05:10:44;1.80;;;1.70;;
20375;SDS011;10347;51.828;6.466;2023-04-03T05:13:10;1.83;;;1.73;;
20375;SDS011;10347;51.828;6.466;2023-04-03T05:15:36;2.60;;;1.92;;
20375;SDS011;10347;51.828;6.466;2023-04-03T05:18:02;3.75;;;1.83;;
20375;SDS011;10347;51.828;6.466;2023-04-03T05:20:27;2.72;;;2.03;;
20375;SDS011;10347;51.828;6.466;2023-04-03T05:22:53;3.55;;;2.05;;
20375;SDS011;10347;51.828;6.466;2023-04-03T05:25:19;2.92;;;1.90;;
20375;SDS011;10347;51.828;6.466;2023-04-03T05:27:44;3.17;;;1.98;;
20375;SDS011;10347;51.828;6.466;2023-04-03T05:30:10;3.45;;;2.08;;
20375;SDS011;10347;51.828;6.466;2023-04-03T05:32:36;2.00;;;1.80;;
20375;SDS011;10347;51.828;6.466;2023-04-03T05:35:01;2.25;;;2.10;;
20375;SDS011;10347;51.828;6.466;2023-04-03T05:37:27;2.72;;;2.20;;
20375;SDS011;10347;51.828;6.466;2023-04-03T05:39:52;3.20;;;2.10;;
20375;SDS011;10347;51.828;6.466;2023-04-03T05:42:18;1.80;;;1.70;;
20375;SDS011;10347;51.828;6.466;2023-04-03T05:44:43;5.22;;;1.98;;
20375;SDS011;10347;51.828;6.466;2023-04-03T05:47:11;4.07;;;2.25;;
20375;SDS011;10347;51.828;6.466;2023-04-03T05:49:37;3.70;;;2.05;;
20375;SDS011;10347;51.828;6.466;2023-04-03T05:52:05;2.58;;;2.33;;
20375;SDS011;10347;51.828;6.466;2023-04-03T05:54:35;3.90;;;2.35;;
20375;SDS011;10347;51.828;6.466;2023-04-03T05:57:00;2.50;;;1.95;;
20375;SDS011;10347;51.828;6.466;2023-04-03T05:59:26;7.78;;;2.50;;
20375;SDS011;10347;51.828;6.466;2023-04-03T06:01:51;4.75;;;2.03;;
20375;SDS011;10347;51.828;6.466;2023-04-03T06:04:17;2.10;;;1.90;;
20375;SDS011;10347;51.828;6.466;2023-04-03T06:09:14;3.38;;;2.28;;
20375;SDS011;10347;51.828;6.466;2023-04-03T06:11:41;4.68;;;2.20;;
20375;SDS011;10347;51.828;6.466;2023-04-03T06:14:07;3.15;;;2.40;;
20375;SDS011;10347;51.828;6.466;2023-04-03T06:16:34;5.28;;;2.20;;
20375;SDS011;10347;51.828;6.466;2023-04-03T06:19:00;4.20;;;2.13;;
20375;SDS011;10347;51.828;6.466;2023-04-03T06:21:25;3.13;;;2.20;;
20375;SDS011;10347;51.828;6.466;2023-04-03T06:23:51;4.68;;;2.05;;
20375;SDS011;10347;51.828;6.466;2023-04-03T06:26:16;6.47;;;2.75;;
20375;SDS011;10347;51.828;6.466;2023-04-03T06:28:42;3.97;;;2.30;;
20375;SDS011;10347;51.828;6.466;2023-04-03T06:31:08;6.35;;;2.45;;
20375;SDS011;10347;51.828;6.466;2023-04-03T06:33:34;6.80;;;2.40;;
20375;SDS011;10347;51.828;6.466;2023-04-03T06:36:00;5.68;;;2.30;;
20375;SDS011;10347;51.828;6.466;2023-04-03T06:38:28;3.40;;;2.55;;
20375;SDS011;10347;51.828;6.466;2023-04-03T06:40:54;6.13;;;2.40;;
20375;SDS011;10347;51.828;6.466;2023-04-03T06:43:20;7.25;;;2.35;;
20375;SDS011;10347;51.828;6.466;2023-04-03T06:45:46;3.47;;;2.10;;
20375;SDS011;10347;51.828;6.466;2023-04-03T06:48:12;4.47;;;1.92;;
20375;SDS011;10347;51.828;6.466;2023-04-03T06:50:38;3.80;;;2.20;;
20375;SDS011;10347;51.828;6.466;2023-04-03T06:53:03;5.18;;;2.40;;
20375;SDS011;10347;51.828;6.466;2023-04-03T06:55:29;5.78;;;2.83;;
20375;SDS011;10347;51.828;6.466;2023-04-03T06:57:55;3.80;;;2.45;;
20375;SDS011;10347;51.828;6.466;2023-04-03T07:00:21;4.85;;;2.33;;
20375;SDS011;10347;51.828;6.466;2023-04-03T07:02:46;4.00;;;2.13;;
20375;SDS011;10347;51.828;6.466;2023-04-03T07:05:12;4.03;;;2.60;;
20375;SDS011;10347;51.828;6.466;2023-04-03T07:07:38;3.35;;;2.13;;
20375;SDS011;10347;51.828;6.466;2023-04-03T07:10:04;3.83;;;2.55;;
20375;SDS011;10347;51.828;6.466;2023-04-03T07:12:31;2.53;;;2.22;;
20375;SDS011;10347;51.828;6.466;2023-04-03T07:14:57;6.45;;;2.20;;
20375;SDS011;10347;51.828;6.466;2023-04-03T07:17:23;4.75;;;2.63;;
20375;SDS011;10347;51.828;6.466;2023-04-03T07:19:48;4.05;;;2.10;;
20375;SDS011;10347;51.828;6.466;2023-04-03T07:22:14;4.07;;;2.15;;
20375;SDS011;10347;51.828;6.466;2023-04-03T07:24:39;4.60;;;2.63;;
20375;SDS011;10347;51.828;6.466;2023-04-03T07:27:06;4.18;;;2.40;;
20375;SDS011;10347;51.828;6.466;2023-04-03T07:29:33;4.90;;;2.90;;
20375;SDS011;10347;51.828;6.466;2023-04-03T07:31:59;4.43;;;2.30;;
20375;SDS011;10347;51.828;6.466;2023-04-03T07:34:24;3.92;;;2.38;;
20375;SDS011;10347;51.828;6.466;2023-04-03T07:36:50;5.53;;;2.30;;
20375;SDS011;10347;51.828;6.466;2023-04-03T07:39:15;3.45;;;2.17;;
20375;SDS011;10347;51.828;6.466;2023-04-03T07:41:41;4.30;;;2.38;;
20375;SDS011;10347;51.828;6.466;2023-04-03T07:44:06;3.95;;;2.35;;
20375;SDS011;10347;51.828;6.466;2023-04-03T07:46:34;6.03;;;2.50;;
20375;SDS011;10347;51.828;6.466;2023-04-03T07:49:00;2.97;;;2.17;;
20375;SDS011;10347;51.828;6.466;2023-04-03T07:51:26;5.60;;;2.35;;
20375;SDS011;10347;51.828;6.466;2023-04-03T07:53:53;3.25;;;2.20;;
20375;SDS011;10347;51.828;6.466;2023-04-03T07:56:19;2.78;;;2.20;;
20375;SDS011;10347;51.828;6.466;2023-04-03T07:58:45;2.67;;;1.90;;
20375;SDS011;10347;51.828;6.466;2023-04-03T08:01:11;7.75;;;2.15;;
20375;SDS011;10347;51.828;6.466;2023-04-03T08:03:37;2.90;;;2.00;;
20375;SDS011;10347;51.828;6.466;2023-04-03T08:06:04;4.45;;;2.30;;
20375;SDS011;10347;51.828;6.466;2023-04-03T08:08:31;2.53;;;2.03;;
20375;SDS011;10347;51.828;6.466;2023-04-03T08:10:58;3.13;;;2.10;;
20375;SDS011;10347;51.828;6.466;2023-04-03T08:13:25;2.75;;;2.00;;
20375;SDS011;10347;51.828;6.466;2023-04-03T08:15:51;3.75;;;2.00;;
20375;SDS011;10347;51.828;6.466;2023-04-03T08:18:17;2.08;;;1.80;;
20375;SDS011;10347;51.828;6.466;2023-04-03T08:20:46;3.03;;;2.00;;
20375;SDS011;10347;51.828;6.466;2023-04-03T08:23:12;3.25;;;2.05;;
20375;SDS011;10347;51.828;6.466;2023-04-03T08:25:39;5.65;;;2.15;;
20375;SDS011;10347;51.828;6.466;2023-04-03T08:28:06;2.60;;;1.80;;
20375;SDS011;10347;51.828;6.466;2023-04-03T08:30:32;1.92;;;1.70;;
20375;SDS011;10347;51.828;6.466;2023-04-03T08:33:00;1.73;;;1.63;;
20375;SDS011;10347;51.828;6.466;2023-04-03T08:35:27;3.28;;;1.83;;
20375;SDS011;10347;51.828;6.466;2023-04-03T08:37:52;2.67;;;1.63;;
20375;SDS011;10347;51.828;6.466;2023-04-03T08:40:18;2.65;;;1.90;;
20375;SDS011;10347;51.828;6.466;2023-04-03T08:48:06;2.03;;;1.80;;
20375;SDS011;10347;51.828;6.466;2023-04-03T08:50:37;2.17;;;1.70;;
20375;SDS011;10347;51.828;6.466;2023-04-03T08:53:11;2.42;;;1.58;;
20375;SDS011;10347;51.828;6.466;2023-04-03T08:55:45;3.10;;;1.70;;
20375;SDS011;10347;51.828;6.466;2023-04-03T08:58:12;2.95;;;1.58;;
20375;SDS011;10347;51.828;6.466;2023-04-03T09:00:45;3.45;;;1.65;;
20375;SDS011;10347;51.828;6.466;2023-04-03T09:03:20;4.00;;;1.58;;
20375;SDS011;10347;51.828;6.466;2023-04-03T09:05:54;2.10;;;1.70;;
20375;SDS011;10347;51.828;6.466;2023-04-03T09:08:38;2.67;;;1.60;;
20375;SDS011;10347;51.828;6.466;2023-04-03T09:11:31;2.42;;;1.88;;
20375;SDS011;10347;51.828;6.466;2023-04-03T09:14:15;2.20;;;1.60;;
20375;SDS011;10347;51.828;6.466;2023-04-03T09:16:48;1.60;;;1.50;;
20375;SDS011;10347;51.828;6.466;2023-04-03T09:19:16;1.95;;;1.60;;
20375;SDS011;10347;51.828;6.466;2023-04-03T09:21:56;2.95;;;1.70;;
20375;SDS011;10347;51.828;6.466;2023-04-03T09:24:27;1.98;;;1.67;;
20375;SDS011;10347;51.828;6.466;2023-04-03T09:26:57;3.15;;;1.55;;
20375;SDS011;10347;51.828;6.466;2023-04-03T09:29:27;2.03;;;1.50;;
20375;SDS011;10347;51.828;6.466;2023-04-03T09:31:56;2.90;;;1.50;;
20375;SDS011;10347;51.828;6.466;2023-04-03T09:34:46;1.70;;;1.38;;
20375;SDS011;10347;51.828;6.466;2023-04-03T09:37:12;3.70;;;1.60;;
20375;SDS011;10347;51.828;6.466;2023-04-03T09:40:01;2.03;;;1.42;;
20375;SDS011;10347;51.828;6.466;2023-04-03T09:42:29;1.45;;;1.38;;
20375;SDS011;10347;51.828;6.466;2023-04-03T09:45:01;2.28;;;1.40;;
20375;SDS011;10347;51.828;6.466;2023-04-03T09:47:36;3.13;;;1.50;;
20375;SDS011;10347;51.828;6.466;2023-04-03T09:52:37;1.50;;;1.40;;
20375;SDS011;10347;51.828;6.466;2023-04-03T09:57:52;1.30;;;1.25;;
20375;SDS011;10347;51.828;6.466;2023-04-03T10:00:23;1.42;;;1.30;;
20375;SDS011;10347;51.828;6.466;2023-04-03T10:02:53;2.53;;;1.42;;
20375;SDS011;10347;51.828;6.466;2023-04-03T10:05:28;4.53;;;1.50;;
20375;SDS011;10347;51.828;6.466;2023-04-03T10:10:44;1.40;;;1.30;;
20375;SDS011;10347;51.828;6.466;2023-04-03T10:13:13;2.88;;;1.30;;
20375;SDS011;10347;51.828;6.466;2023-04-03T10:15:50;1.20;;;1.10;;
20375;SDS011;10347;51.828;6.466;2023-04-03T10:18:32;1.45;;;1.35;;
20375;SDS011;10347;51.828;6.466;2023-04-03T10:21:26;1.67;;;1.52;;
20375;SDS011;10347;51.828;6.466;2023-04-03T10:32:24;2.08;;;1.48;;
20375;SDS011;10347;51.828;6.466;2023-04-03T10:40:29;2.53;;;1.60;;
20375;SDS011;10347;51.828;6.466;2023-04-03T10:43:08;2.88;;;1.58;;
20375;SDS011;10347;51.828;6.466;2023-04-03T10:54:22;1.80;;;1.70;;
20375;SDS011;10347;51.828;6.466;2023-04-03T10:57:01;1.85;;;1.48;;
20375;SDS011;10347;51.828;6.466;2023-04-03T11:02:25;2.55;;;1.50;;
20375;SDS011;10347;51.828;6.466;2023-04-03T11:07:47;1.20;;;1.20;;
20375;SDS011;10347;51.828;6.466;2023-04-03T11:10:21;1.42;;;1.33;;
20375;SDS011;10347;51.828;6.466;2023-04-03T11:12:54;2.50;;;1.63;;
20375;SDS011;10347;51.828;6.466;2023-04-03T11:15:49;2.35;;;1.67;;
20375;SDS011;10347;51.828;6.466;2023-04-03T11:19:01;1.83;;;1.40;;
20375;SDS011;10347;51.828;6.466;2023-04-03T11:21:15;1.77;;;1.52;;
20375;SDS011;10347;51.828;6.466;2023-04-03T11:23:45;1.60;;;1.50;;
20375;SDS011;10347;51.828;6.466;2023-04-03T11:26:12;1.88;;;1.42;;
20375;SDS011;10347;51.828;6.466;2023-04-03T11:28:40;3.20;;;1.50;;
20375;SDS011;10347;51.828;6.466;2023-04-03T11:31:23;1.75;;;1.35;;
20375;SDS011;10347;51.828;6.466;2023-04-03T11:36:45;1.83;;;1.50;;
20375;SDS011;10347;51.828;6.466;2023-04-03T11:41:47;2.67;;;1.63;;
20375;SDS011;10347;51.828;6.466;2023-04-03T11:47:02;1.50;;;1.40;;
20375;SDS011;10347;51.828;6.466;2023-04-03T12:05:50;2.90;;;1.60;;
20375;SDS011;10347;51.828;6.466;2023-04-03T12:08:29;1.45;;;1.35;;
20375;SDS011;10347;51.828;6.466;2023-04-03T12:11:13;2.85;;;1.55;;
20375;SDS011;10347;51.828;6.466;2023-04-03T12:26:48;3.00;;;1.40;;
20375;SDS011;10347;51.828;6.466;2023-04-03T12:45:24;3.45;;;1.52;;
20375;SDS011;10347;51.828;6.466;2023-04-03T12:47:51;4.35;;;1.75;;
20375;SDS011;10347;51.828;6.466;2023-04-03T12:50:28;3.90;;;1.80;;
20375;SDS011;10347;51.828;6.466;2023-04-03T12:52:57;2.22;;;1.80;;
20375;SDS011;10347;51.828;6.466;2023-04-03T12:55:27;4.30;;;1.80;;
20375;SDS011;10347;51.828;6.466;2023-04-03T12:57:52;4.10;;;1.83;;
20375;SDS011;10347;51.828;6.466;2023-04-03T13:00:19;6.10;;;2.80;;
20375;SDS011;10347;51.828;6.466;2023-04-03T13:02:59;2.35;;;1.58;;
20375;SDS011;10347;51.828;6.466;2023-04-03T13:05:27;2.55;;;1.75;;
20375;SDS011;10347;51.828;6.466;2023-04-03T13:07:56;7.53;;;2.45;;
20375;SDS011;10347;51.828;6.466;2023-04-03T13:10:28;1.48;;;1.38;;
20375;SDS011;10347;51.828;6.466;2023-04-03T13:12:55;2.03;;;1.50;;
20375;SDS011;10347;51.828;6.466;2023-04-03T13:15:24;7.45;;;1.48;;
20375;SDS011;10347;51.828;6.466;2023-04-03T13:17:55;6.03;;;1.58;;
20375;SDS011;10347;51.828;6.466;2023-04-03T13:20:25;8.20;;;2.10;;
20375;SDS011;10347;51.828;6.466;2023-04-03T13:25:25;1.40;;;1.25;;
20375;SDS011;10347;51.828;6.466;2023-04-03T13:27:54;2.15;;;1.30;;
20375;SDS011;10347;51.828;6.466;2023-04-03T13:30:30;1.60;;;1.50;;
20375;SDS011;10347;51.828;6.466;2023-04-03T13:32:59;1.95;;;1.40;;
20375;SDS011;10347;51.828;6.466;2023-04-03T13:35:32;4.43;;;1.70;;
20375;SDS011;10347;51.828;6.466;2023-04-03T13:38:07;1.60;;;1.30;;
20375;SDS011;10347;51.828;6.466;2023-04-03T13:40:53;2.13;;;1.60;;
20375;SDS011;10347;51.828;6.466;2023-04-03T13:43:25;2.78;;;1.88;;
20375;SDS011;10347;51.828;6.466;2023-04-03T13:45:54;2.28;;;1.60;;
20375;SDS011;10347;51.828;6.466;2023-04-03T13:48:25;2.92;;;1.60;;
20375;SDS011;10347;51.828;6.466;2023-04-03T13:50:53;3.70;;;1.55;;
20375;SDS011;10347;51.828;6.466;2023-04-03T13:53:19;1.50;;;1.40;;
20375;SDS011;10347;51.828;6.466;2023-04-03T13:55:53;2.92;;;1.55;;
20375;SDS011;10347;51.828;6.466;2023-04-03T13:58:24;3.08;;;1.50;;
20375;SDS011;10347;51.828;6.466;2023-04-03T14:05:51;3.60;;;1.52;;
20375;SDS011;10347;51.828;6.466;2023-04-03T14:08:18;2.30;;;1.70;;
20375;SDS011;10347;51.828;6.466;2023-04-03T14:10:43;3.33;;;1.88;;
20375;SDS011;10347;51.828;6.466;2023-04-03T14:13:13;2.45;;;1.55;;
20375;SDS011;10347;51.828;6.466;2023-04-03T14:15:40;2.30;;;1.65;;
20375;SDS011;10347;51.828;6.466;2023-04-03T14:18:09;1.90;;;1.55;;
20375;SDS011;10347;51.828;6.466;2023-04-03T14:20:38;2.17;;;1.63;;
20375;SDS011;10347;51.828;6.466;2023-04-03T14:23:04;2.30;;;2.08;;
20375;SDS011;10347;51.828;6.466;2023-04-03T14:25:31;1.30;;;1.30;;
20375;SDS011;10347;51.828;6.466;2023-04-03T14:27:56;1.88;;;1.30;;
20375;SDS011;10347;51.828;6.466;2023-04-03T14:30:29;2.13;;;1.48;;
20375;SDS011;10347;51.828;6.466;2023-04-03T14:32:57;1.70;;;1.55;;
20375;SDS011;10347;51.828;6.466;2023-04-03T14:35:23;2.08;;;1.70;;
20375;SDS011;10347;51.828;6.466;2023-04-03T14:37:50;2.75;;;1.60;;
20375;SDS011;10347;51.828;6.466;2023-04-03T14:40:19;2.70;;;1.70;;
20375;SDS011;10347;51.828;6.466;2023-04-03T14:42:50;2.30;;;1.58;;
20375;SDS011;10347;51.828;6.466;2023-04-03T14:45:17;6.38;;;1.85;;
20375;SDS011;10347;51.828;6.466;2023-04-03T14:47:50;2.28;;;1.60;;
20375;SDS011;10347;51.828;6.466;2023-04-03T14:50:22;2.08;;;1.40;;
20375;SDS011;10347;51.828;6.466;2023-04-03T14:52:50;2.40;;;1.48;;
20375;SDS011;10347;51.828;6.466;2023-04-03T14:55:19;2.83;;;1.60;;
20375;SDS011;10347;51.828;6.466;2023-04-03T14:57:46;1.80;;;1.55;;
20375;SDS011;10347;51.828;6.466;2023-04-03T15:00:19;3.05;;;1.55;;
20375;SDS011;10347;51.828;6.466;2023-04-03T15:02:45;3.72;;;1.80;;
20375;SDS011;10347;51.828;6.466;2023-04-03T15:05:12;3.13;;;1.65;;
20375;SDS011;10347;51.828;6.466;2023-04-03T15:07:49;2.17;;;1.50;;
20375;SDS011;10347;51.828;6.466;2023-04-03T15:10:19;1.85;;;1.60;;
20375;SDS011;10347;51.828;6.466;2023-04-03T15:12:46;2.00;;;1.75;;
20375;SDS011;10347;51.828;6.466;2023-04-03T15:15:16;2.90;;;1.70;;
20375;SDS011;10347;51.828;6.466;2023-04-03T15:17:44;3.17;;;1.60;;
20375;SDS011;10347;51.828;6.466;2023-04-03T15:20:18;3.08;;;1.58;;
20375;SDS011;10347;51.828;6.466;2023-04-03T15:22:46;2.83;;;1.70;;
20375;SDS011;10347;51.828;6.466;2023-04-03T15:25:11;2.67;;;1.70;;
20375;SDS011;10347;51.828;6.466;2023-04-03T15:27:37;3.78;;;1.73;;
20375;SDS011;10347;51.828;6.466;2023-04-03T15:30:04;3.55;;;1.80;;
20375;SDS011;10347;51.828;6.466;2023-04-03T15:32:31;3.47;;;1.73;;
20375;SDS011;10347;51.828;6.466;2023-04-03T15:34:58;3.72;;;1.92;;
20375;SDS011;10347;51.828;6.466;2023-04-03T15:37:24;1.98;;;1.63;;
20375;SDS011;10347;51.828;6.466;2023-04-03T15:39:50;1.67;;;1.58;;
20375;SDS011;10347;51.828;6.466;2023-04-03T15:42:15;2.25;;;1.80;;
20375;SDS011;10347;51.828;6.466;2023-04-03T15:44:41;2.55;;;1.77;;
20375;SDS011;10347;51.828;6.466;2023-04-03T15:47:06;2.53;;;1.88;;
20375;SDS011;10347;51.828;6.466;2023-04-03T15:49:32;1.88;;;1.70;;
20375;SDS011;10347;51.828;6.466;2023-04-03T15:51:59;4.65;;;2.03;;
20375;SDS011;10347;51.828;6.466;2023-04-03T15:54:25;2.53;;;2.00;;
20375;SDS011;10347;51.828;6.466;2023-04-03T15:56:51;3.30;;;1.98;;
20375;SDS011;10347;51.828;6.466;2023-04-03T15:59:17;2.22;;;1.70;;
20375;SDS011;10347;51.828;6.466;2023-04-03T16:01:43;4.60;;;1.80;;
20375;SDS011;10347;51.828;6.466;2023-04-03T16:04:09;4.13;;;1.90;;
20375;SDS011;10347;51.828;6.466;2023-04-03T16:06:35;3.35;;;1.90;;
20375;SDS011;10347;51.828;6.466;2023-04-03T16:09:02;2.35;;;1.60;;
20375;SDS011;10347;51.828;6.466;2023-04-03T16:11:29;4.53;;;1.88;;
20375;SDS011;10347;51.828;6.466;2023-04-03T16:13:55;2.35;;;1.75;;
20375;SDS011;10347;51.828;6.466;2023-04-03T16:16:21;2.47;;;1.65;;
20375;SDS011;10347;51.828;6.466;2023-04-03T16:18:47;2.15;;;1.55;;
20375;SDS011;10347;51.828;6.466;2023-04-03T16:21:13;2.40;;;1.65;;
20375;SDS011;10347;51.828;6.466;2023-04-03T16:23:40;2.30;;;1.70;;
20375;SDS011;10347;51.828;6.466;2023-04-03T16:26:06;3.83;;;2.00;;
20375;SDS011;10347;51.828;6.466;2023-04-03T16:28:32;2.50;;;1.83;;
20375;SDS011;10347;51.828;6.466;2023-04-03T16:30:57;3.20;;;1.85;;
20375;SDS011;10347;51.828;6.466;2023-04-03T16:33:24;4.78;;;2.00;;
20375;SDS011;10347;51.828;6.466;2023-04-03T16:35:50;4.15;;;1.90;;
20375;SDS011;10347;51.828;6.466;2023-04-03T16:38:16;2.30;;;1.90;;
20375;SDS011;10347;51.828;6.466;2023-04-03T16:40:43;3.72;;;1.60;;